createdAt,value
2016-05-16T00:00:30.850Z,71.46
2016-05-16T00:01:30.806Z,71.84
2016-05-16T00:02:30.777Z,71.94
2016-05-16T00:03:30.748Z,71.84
2016-05-16T00:04:30.704Z,71.56
2016-05-16T00:05:30.816Z,70.89
2016-05-16T00:06:30.632Z,71.18
2016-05-16T00:07:30.587Z,70.99
2016-05-16T00:08:30.559Z,71.56
2016-05-16T00:09:30.530Z,71.37
2016-05-16T00:10:30.486Z,70.99
2016-05-16T00:11:30.441Z,71.37
2016-05-16T00:12:30.413Z,71.27
2016-05-16T00:13:30.370Z,71.08
2016-05-16T00:14:30.341Z,70.89
2016-05-16T00:15:30.297Z,71.23
2016-05-16T00:16:30.268Z,71.18
2016-05-16T00:17:30.239Z,70.89
2016-05-16T00:18:30.194Z,70.99
2016-05-16T00:19:30.166Z,70.89
2016-05-16T00:20:30.122Z,71.18
2016-05-16T00:21:30.094Z,71.37
2016-05-16T00:22:30.049Z,71.94
2016-05-16T00:23:30.021Z,71.84
2016-05-16T00:24:29.977Z,71.84
2016-05-16T00:25:29.933Z,72.03
2016-05-16T00:26:29.904Z,71.75
2016-05-16T00:27:29.876Z,71.84
2016-05-16T00:28:29.832Z,72.51
2016-05-16T00:29:29.787Z,72.7
2016-05-16T00:30:29.759Z,72.7
2016-05-16T00:31:29.729Z,72.79
2016-05-16T00:32:29.687Z,72.41
2016-05-16T00:33:29.642Z,72.85
2016-05-16T00:34:29.613Z,73.14
2016-05-16T00:35:29.584Z,73.8
2016-05-16T00:36:29.540Z,73.61
2016-05-16T00:37:29.512Z,73.52
2016-05-16T00:38:29.467Z,73.9
2016-05-16T00:39:29.439Z,74.08
2016-05-16T00:40:29.395Z,73.71
2016-05-16T00:41:29.351Z,74.27
2016-05-16T00:42:29.322Z,75.13
2016-05-16T00:43:29.294Z,74.75
2016-05-16T00:44:29.249Z,75.42
2016-05-16T00:45:29.205Z,75.7
2016-05-16T00:46:29.177Z,75.79
2016-05-16T00:47:29.133Z,76.18
2016-05-16T00:48:29.104Z,76.18
2016-05-16T00:49:29.075Z,76.27
2016-05-16T00:50:29.031Z,76.18
2016-05-16T00:51:28.987Z,76.75
2016-05-16T00:52:28.958Z,76.84
2016-05-16T00:53:28.914Z,76.84
2016-05-16T00:54:28.886Z,77.03
2016-05-16T00:55:28.857Z,77.31
2016-05-16T00:56:28.813Z,77.41
2016-05-16T00:57:28.800Z,77.31
2016-05-16T00:58:28.741Z,77.41
2016-05-16T00:59:28.695Z,77.41
2016-05-16T01:00:28.667Z,77.6
2016-05-16T01:01:28.623Z,76.93
2016-05-16T01:02:28.595Z,76.84
2016-05-16T01:03:28.551Z,76.65
2016-05-16T01:04:28.522Z,76.84
2016-05-16T01:05:28.478Z,76.84
2016-05-16T01:06:28.448Z,76.84
2016-05-16T01:07:28.406Z,76.37
2016-05-16T01:08:28.376Z,76.46
2016-05-16T01:09:28.332Z,76.84
2016-05-16T01:10:28.304Z,76.65
2016-05-16T01:11:28.259Z,76.27
2016-05-16T01:12:28.231Z,76.56
2016-05-16T01:13:28.250Z,76.84
2016-05-16T01:14:28.159Z,77.12
2016-05-16T01:15:28.145Z,76.93
2016-05-16T01:16:28.085Z,76.65
2016-05-16T01:17:28.041Z,77.12
2016-05-16T01:18:28.044Z,77.6
2016-05-16T01:19:27.969Z,77.51
2016-05-16T01:20:27.941Z,77.31
2016-05-16T01:21:27.896Z,77.41
2016-05-16T01:22:27.866Z,77.41
2016-05-16T01:23:27.824Z,77.41
2016-05-16T01:24:27.795Z,77.22
2016-05-16T01:25:27.750Z,77.22
2016-05-16T01:26:27.721Z,77.41
2016-05-16T01:27:27.678Z,77.41
2016-05-16T01:28:27.648Z,77.41
2016-05-16T01:29:27.605Z,76.84
2016-05-16T01:30:27.576Z,76.84
2016-05-16T01:31:27.532Z,76.08
2016-05-16T01:32:27.504Z,76.18
2016-05-16T01:33:27.460Z,76.18
2016-05-16T01:34:27.415Z,75.7
2016-05-16T01:35:27.792Z,75.6
2016-05-16T01:36:27.358Z,75.42
2016-05-16T01:37:27.315Z,75.6
2016-05-16T01:38:27.285Z,75.32
2016-05-16T01:39:27.241Z,74.85
2016-05-16T01:40:27.198Z,74.85
2016-05-16T01:41:27.168Z,74.56
2016-05-16T01:42:27.139Z,74.85
2016-05-16T01:43:27.096Z,74.85
2016-05-16T01:44:27.051Z,74.47
2016-05-16T01:45:27.022Z,74.47
2016-05-16T01:46:26.979Z,74.37
2016-05-16T01:47:26.950Z,74.18
2016-05-16T01:48:26.921Z,74.37
2016-05-16T01:49:26.878Z,74.27
2016-05-16T01:50:26.833Z,73.99
2016-05-16T01:51:26.835Z,73.9
2016-05-16T01:52:26.848Z,73.99
2016-05-16T01:53:26.844Z,73.8
2016-05-16T01:54:26.854Z,73.99
2016-05-16T01:55:26.852Z,74.37
2016-05-16T01:56:26.843Z,74.37
2016-05-16T01:57:26.813Z,74.47
2016-05-16T01:58:26.785Z,74.47
2016-05-16T01:59:26.770Z,75.32
2016-05-16T02:00:26.740Z,75.04
2016-05-16T02:01:26.719Z,76.08
2016-05-16T02:02:26.681Z,75.79
2016-05-16T02:03:26.658Z,75.79
2016-05-16T02:04:26.619Z,75.79
2016-05-16T02:05:27.205Z,76.37
2016-05-16T02:06:26.554Z,76.37
2016-05-16T02:07:26.528Z,76.46
2016-05-16T02:08:26.501Z,76.84
2016-05-16T02:09:26.459Z,77.03
2016-05-16T02:10:26.417Z,77.51
2016-05-16T02:11:26.390Z,77.41
2016-05-16T02:12:26.361Z,77.41
2016-05-16T02:13:26.317Z,77.51
2016-05-16T02:14:26.275Z,78.27
2016-05-16T02:15:26.246Z,77.79
2016-05-16T02:16:26.202Z,77.7
2016-05-16T02:17:26.173Z,77.6
2016-05-16T02:18:26.130Z,78.27
2016-05-16T02:19:26.101Z,78.17
2016-05-16T02:20:26.056Z,78.45
2016-05-16T02:21:26.029Z,78.55
2016-05-16T02:22:25.984Z,79.46
2016-05-16T02:23:25.955Z,79.22
2016-05-16T02:24:25.912Z,79.46
2016-05-16T02:25:25.883Z,79.46
2016-05-16T02:26:25.839Z,78.99
2016-05-16T02:27:25.810Z,79.17
2016-05-16T02:28:25.766Z,79.17
2016-05-16T02:29:25.737Z,79.36
2016-05-16T02:30:25.694Z,79.36
2016-05-16T02:31:25.649Z,79.94
2016-05-16T02:32:25.620Z,79.65
2016-05-16T02:33:25.591Z,79.74
2016-05-16T02:34:25.548Z,80.13
2016-05-16T02:35:25.503Z,80.32
2016-05-16T02:36:25.475Z,80.13
2016-05-16T02:37:25.430Z,80.22
2016-05-16T02:38:25.402Z,80.51
2016-05-16T02:39:25.358Z,80.41
2016-05-16T02:40:25.330Z,80.22
2016-05-16T02:41:25.285Z,80.51
2016-05-16T02:42:25.256Z,80.41
2016-05-16T02:43:25.212Z,80.88
2016-05-16T02:44:25.184Z,80.88
2016-05-16T02:45:25.140Z,80.79
2016-05-16T02:46:25.095Z,80.98
2016-05-16T02:47:25.068Z,81.45
2016-05-16T02:48:25.023Z,81.17
2016-05-16T02:49:24.995Z,81.17
2016-05-16T02:50:25.028Z,81.36
2016-05-16T02:51:24.921Z,81.36
2016-05-16T02:52:24.877Z,81.55
2016-05-16T02:53:24.849Z,82.12
2016-05-16T02:54:24.804Z,81.74
2016-05-16T02:55:24.776Z,81.74
2016-05-16T02:56:24.731Z,82.21
2016-05-16T02:57:24.687Z,82.21
2016-05-16T02:58:24.659Z,82.31
2016-05-16T02:59:24.615Z,82.21
2016-05-16T03:00:24.586Z,82.21
2016-05-16T03:01:24.542Z,82.12
2016-05-16T03:02:24.530Z,82.03
2016-05-16T03:03:24.469Z,82.12
2016-05-16T03:04:24.441Z,81.36
2016-05-16T03:05:24.396Z,82.4
2016-05-16T03:06:24.368Z,82.12
2016-05-16T03:07:24.324Z,81.74
2016-05-16T03:08:24.280Z,82.31
2016-05-16T03:09:24.251Z,82.12
2016-05-16T03:10:24.222Z,81.55
2016-05-16T03:11:24.179Z,82.21
2016-05-16T03:12:24.135Z,82.31
2016-05-16T03:13:24.105Z,82.12
2016-05-16T03:14:24.062Z,81.65
2016-05-16T03:15:24.032Z,82.88
2016-05-16T03:16:23.988Z,82.78
2016-05-16T03:17:23.960Z,82.31
2016-05-16T03:18:23.916Z,82.21
2016-05-16T03:19:23.903Z,82.59
2016-05-16T03:20:23.843Z,82.12
2016-05-16T03:21:23.815Z,82.73
2016-05-16T03:22:23.770Z,82.88
2016-05-16T03:23:23.726Z,82.5
2016-05-16T03:24:23.698Z,82.78
2016-05-16T03:25:23.654Z,82.88
2016-05-16T03:26:23.625Z,82.5
2016-05-16T03:27:23.581Z,82.59
2016-05-16T03:28:23.552Z,82.69
2016-05-16T03:29:23.508Z,82.78
2016-05-16T03:30:23.480Z,83.36
2016-05-16T03:31:23.436Z,82.5
2016-05-16T03:32:23.406Z,83.45
2016-05-16T03:33:23.363Z,83.36
2016-05-16T03:34:23.334Z,83.07
2016-05-16T03:35:23.289Z,83.45
2016-05-16T03:36:23.261Z,82.97
2016-05-16T03:37:23.217Z,83.36
2016-05-16T03:38:23.188Z,83.16
2016-05-16T03:39:23.144Z,83.16
2016-05-16T03:40:23.100Z,83.26
2016-05-16T03:41:23.071Z,83.64
2016-05-16T03:42:23.043Z,83.64
2016-05-16T03:43:22.999Z,84.01
2016-05-16T03:44:22.955Z,84.21
2016-05-16T03:45:22.926Z,83.92
2016-05-16T03:46:22.882Z,83.69
2016-05-16T03:47:22.838Z,83.88
2016-05-16T03:48:22.809Z,83.88
2016-05-16T03:49:22.796Z,83.97
2016-05-16T03:50:22.737Z,84.64
2016-05-16T03:51:22.692Z,83.69
2016-05-16T03:52:22.664Z,83.88
2016-05-16T03:53:22.620Z,84.26
2016-05-16T03:54:22.590Z,83.97
2016-05-16T03:55:22.547Z,84.36
2016-05-16T03:56:22.518Z,84.17
2016-05-16T03:57:22.474Z,84.45
2016-05-16T03:58:22.445Z,84.74
2016-05-16T03:59:22.417Z,84.83
2016-05-16T04:00:22.356Z,84.83
2016-05-16T04:01:22.328Z,84.92
2016-05-16T04:02:22.284Z,85.59
2016-05-16T04:03:22.256Z,85.4
2016-05-16T04:04:22.211Z,85.3
2016-05-16T04:05:22.183Z,85.87
2016-05-16T04:06:22.139Z,85.78
2016-05-16T04:07:22.111Z,85.78
2016-05-16T04:08:22.066Z,85.87
2016-05-16T04:09:22.022Z,86.16
2016-05-16T04:10:21.993Z,85.49
2016-05-16T04:11:21.949Z,85.87
2016-05-16T04:12:21.921Z,85.68
2016-05-16T04:13:21.907Z,85.49
2016-05-16T04:14:21.848Z,85.4
2016-05-16T04:15:21.804Z,85.3
2016-05-16T04:16:21.760Z,85.68
2016-05-16T04:17:21.731Z,85.3
2016-05-16T04:18:21.687Z,85.3
2016-05-16T04:19:21.657Z,84.74
2016-05-16T04:20:21.614Z,84.74
2016-05-16T04:21:21.585Z,84.83
2016-05-16T04:22:21.541Z,84.92
2016-05-16T04:23:21.497Z,84.83
2016-05-16T04:24:21.468Z,85.02
2016-05-16T04:25:21.424Z,85.06
2016-05-16T04:26:21.395Z,85.35
2016-05-16T04:27:21.351Z,84.59
2016-05-16T04:28:21.323Z,84.3
2016-05-16T04:29:21.295Z,84.01
2016-05-16T04:30:21.250Z,84.4
2016-05-16T04:31:21.206Z,84.3
2016-05-16T04:32:21.161Z,84.11
2016-05-16T04:33:21.133Z,84.11
2016-05-16T04:34:21.089Z,84.21
2016-05-16T04:35:21.061Z,84.11
2016-05-16T04:36:21.016Z,84.11
2016-05-16T04:37:20.988Z,84.4
2016-05-16T04:38:20.944Z,84.3
2016-05-16T04:39:20.916Z,84.21
2016-05-16T04:40:20.871Z,83.83
2016-05-16T04:41:20.842Z,84.21
2016-05-16T04:42:20.799Z,84.01
2016-05-16T04:43:20.754Z,84.21
2016-05-16T04:44:20.725Z,83.45
2016-05-16T04:45:20.681Z,83.45
2016-05-16T04:46:20.652Z,83.11
2016-05-16T04:47:20.608Z,83.2
2016-05-16T04:48:20.580Z,83.01
2016-05-16T04:49:20.535Z,83.2
2016-05-16T04:50:20.507Z,83.3
2016-05-16T04:51:20.462Z,83.39
2016-05-16T04:52:20.435Z,83.39
2016-05-16T04:53:20.390Z,83.2
2016-05-16T04:54:20.346Z,83.39
2016-05-16T04:55:20.317Z,83.2
2016-05-16T04:56:20.273Z,82.73
2016-05-16T04:57:20.245Z,82.92
2016-05-16T04:58:20.200Z,82.92
2016-05-16T04:59:20.172Z,82.64
2016-05-16T05:00:20.128Z,82.35
2016-05-16T05:01:20.100Z,82.16
2016-05-16T05:02:20.070Z,82.35
2016-05-16T05:03:20.026Z,81.87
2016-05-16T05:04:19.982Z,81.87
2016-05-16T05:05:20.000Z,81.49
2016-05-16T05:06:19.925Z,81.87
2016-05-16T05:07:19.881Z,81.92
2016-05-16T05:08:19.836Z,81.82
2016-05-16T05:09:19.808Z,81.73
2016-05-16T05:10:19.764Z,81.63
2016-05-16T05:11:19.735Z,81.63
2016-05-16T05:12:19.691Z,80.96
2016-05-16T05:13:19.663Z,81.16
2016-05-16T05:14:19.635Z,80.3
2016-05-16T05:15:19.591Z,80.3
2016-05-16T05:16:19.546Z,79.63
2016-05-16T05:17:19.517Z,80.11
2016-05-16T05:18:19.488Z,80.02
2016-05-16T05:19:19.444Z,79.44
2016-05-16T05:20:19.416Z,79.35
2016-05-16T05:21:19.371Z,78.69
2016-05-16T05:22:19.327Z,78.5
2016-05-16T05:23:19.298Z,77.83
2016-05-16T05:24:19.271Z,77.68
2016-05-16T05:25:19.226Z,76.92
2016-05-16T05:26:19.198Z,76.54
2016-05-16T05:27:19.153Z,76.06
2016-05-16T05:28:19.125Z,75.78
2016-05-16T05:29:19.096Z,75.49
2016-05-16T05:30:19.052Z,75.59
2016-05-16T05:31:19.008Z,75.49
2016-05-16T05:32:18.979Z,74.73
2016-05-16T05:33:18.951Z,74.63
2016-05-16T05:34:18.907Z,74.35
2016-05-16T05:35:18.878Z,73.49
2016-05-16T05:36:18.833Z,73.4
2016-05-16T05:37:18.806Z,73.3
2016-05-16T05:38:18.761Z,72.92
2016-05-16T05:39:18.733Z,72.92
2016-05-16T05:40:18.688Z,72.83
2016-05-16T05:41:18.660Z,72.83
2016-05-16T05:42:18.630Z,72.35
2016-05-16T05:43:18.588Z,72.96
2016-05-16T05:44:18.543Z,72.2
2016-05-16T05:45:18.514Z,71.91
2016-05-16T05:46:18.485Z,72.11
2016-05-16T05:47:18.442Z,71.91
2016-05-16T05:48:18.412Z,72.07
2016-05-16T05:49:18.369Z,71.53
2016-05-16T05:50:18.340Z,71.44
2016-05-16T05:51:18.296Z,70.87
2016-05-16T05:52:18.267Z,70.97
2016-05-16T05:53:18.224Z,71.63
2016-05-16T05:54:18.195Z,71.25
2016-05-16T05:55:18.166Z,71.25
2016-05-16T05:56:18.123Z,71.34
2016-05-16T05:57:18.093Z,71.15
2016-05-16T05:58:18.049Z,70.49
2016-05-16T05:59:18.020Z,70.68
2016-05-16T06:00:17.976Z,70.68
2016-05-16T06:01:17.948Z,70.87
2016-05-16T06:02:17.920Z,70.49
2016-05-16T06:03:17.875Z,70.58
2016-05-16T06:04:17.847Z,70.77
2016-05-16T06:05:17.818Z,69.63
2016-05-16T06:06:17.774Z,69.44
2016-05-16T06:07:17.730Z,69.06
2016-05-16T06:08:17.701Z,68.59
2016-05-16T06:09:17.657Z,68.96
2016-05-16T06:10:17.628Z,68.77
2016-05-16T06:11:17.599Z,68.49
2016-05-16T06:12:17.556Z,68.11
2016-05-16T06:13:17.527Z,67.92
2016-05-16T06:14:17.483Z,66.97
2016-05-16T06:15:17.454Z,66.81
2016-05-16T06:16:17.426Z,67
2016-05-16T06:17:17.381Z,66.72
2016-05-16T06:18:17.352Z,66.53
2016-05-16T06:19:17.310Z,66.43
2016-05-16T06:20:17.280Z,66.24
2016-05-16T06:21:17.252Z,66.24
2016-05-16T06:22:17.207Z,66.53
2016-05-16T06:23:17.179Z,66.56
2016-05-16T06:24:17.135Z,66.56
2016-05-16T06:25:17.106Z,66.27
2016-05-16T06:26:17.078Z,66.56
2016-05-16T06:27:17.034Z,66.27
2016-05-16T06:28:17.004Z,66.08
2016-05-16T06:29:16.976Z,66.27
2016-05-16T06:30:16.932Z,65.51
2016-05-16T06:31:16.903Z,65.42
2016-05-16T06:32:16.860Z,65.32
2016-05-16T06:33:16.830Z,65.42
2016-05-16T06:34:16.787Z,65.61
2016-05-16T06:35:16.774Z,65.23
2016-05-16T06:36:16.730Z,64.94
2016-05-16T06:37:16.686Z,64.5
2016-05-16T06:38:16.656Z,64.78
2016-05-16T06:39:16.628Z,64.12
2016-05-16T06:40:16.584Z,63.92
2016-05-16T06:41:16.556Z,64.02
2016-05-16T06:42:16.527Z,63.83
2016-05-16T06:43:16.483Z,63.64
2016-05-16T06:44:16.454Z,64.5
2016-05-16T06:45:16.425Z,64.59
2016-05-16T06:46:16.397Z,64.02
2016-05-16T06:47:16.353Z,64.12
2016-05-16T06:48:16.325Z,63.73
2016-05-16T06:49:16.280Z,63.35
2016-05-16T06:50:16.643Z,63.07
2016-05-16T06:51:16.224Z,62.88
2016-05-16T06:52:16.179Z,62.12
2016-05-16T06:53:16.151Z,61.93
2016-05-16T06:54:16.121Z,62.21
2016-05-16T06:55:16.077Z,61.93
2016-05-16T06:56:16.049Z,62.12
2016-05-16T06:57:16.021Z,61.07
2016-05-16T06:58:15.976Z,61.07
2016-05-16T06:59:16.620Z,60.88
2016-05-16T07:00:15.919Z,61.07
2016-05-16T07:01:15.890Z,60.88
2016-05-16T07:02:16.565Z,60.49
2016-05-16T07:03:15.817Z,60.52
2016-05-16T07:04:15.774Z,60.52
2016-05-16T07:05:15.745Z,60.33
2016-05-16T07:06:15.716Z,60.33
2016-05-16T07:07:15.673Z,60.05
2016-05-16T07:08:15.644Z,60.52
2016-05-16T07:09:15.615Z,60.43
2016-05-16T07:10:15.571Z,59.95
2016-05-16T07:11:15.542Z,59.76
2016-05-16T07:12:15.514Z,59.95
2016-05-16T07:13:15.470Z,59.57
2016-05-16T07:14:15.441Z,59.76
2016-05-16T07:15:15.413Z,59.09
2016-05-16T07:16:15.431Z,59.28
2016-05-16T07:17:15.340Z,58.33
2016-05-16T07:18:15.311Z,58.33
2016-05-16T07:19:15.282Z,58.33
2016-05-16T07:20:15.238Z,58.14
2016-05-16T07:21:15.210Z,58.33
2016-05-16T07:22:15.182Z,57.76
2016-05-16T07:23:15.138Z,57.95
2016-05-16T07:24:15.109Z,57.6
2016-05-16T07:25:15.127Z,56.84
2016-05-16T07:26:15.035Z,56.93
2016-05-16T07:27:15.007Z,56.46
2016-05-16T07:28:14.976Z,56.55
2016-05-16T07:29:14.948Z,56.26
2016-05-16T07:30:14.950Z,56.46
2016-05-16T07:31:14.876Z,56.07
2016-05-16T07:32:14.846Z,55.88
2016-05-16T07:33:14.817Z,56.17
2016-05-16T07:34:14.773Z,56.17
2016-05-16T07:35:14.745Z,56.07
2016-05-16T07:36:14.717Z,56.46
2016-05-16T07:37:14.672Z,56.46
2016-05-16T07:38:14.644Z,56.93
2016-05-16T07:39:14.615Z,56.46
2016-05-16T07:40:14.571Z,56.74
2016-05-16T07:41:14.543Z,56.07
2016-05-16T07:42:14.513Z,56.07
2016-05-16T07:43:14.486Z,55.88
2016-05-16T07:44:14.441Z,54.74
2016-05-16T07:45:14.413Z,55.41
2016-05-16T07:46:14.383Z,55.34
2016-05-16T07:47:14.355Z,55.15
2016-05-16T07:48:14.310Z,55.43
2016-05-16T07:49:14.282Z,55.24
2016-05-16T07:50:14.255Z,55.34
2016-05-16T07:51:14.210Z,55.15
2016-05-16T07:52:14.182Z,55.34
2016-05-16T07:53:14.152Z,55.72
2016-05-16T07:54:14.124Z,54.86
2016-05-16T07:55:14.096Z,55.24
2016-05-16T07:56:14.051Z,55.53
2016-05-16T07:57:14.023Z,54.48
2016-05-16T07:58:13.993Z,54.19
2016-05-16T07:59:13.951Z,53.81
2016-05-16T08:00:13.922Z,53.43
2016-05-16T08:01:13.893Z,52.38
2016-05-16T08:02:13.849Z,52.76
2016-05-16T08:03:13.820Z,53.33
2016-05-16T08:04:13.792Z,53.33
2016-05-16T08:05:13.762Z,53.72
2016-05-16T08:06:13.765Z,53.91
2016-05-16T08:07:13.690Z,53.72
2016-05-16T08:08:13.662Z,53.72
2016-05-16T08:09:13.633Z,54.19
2016-05-16T08:10:13.605Z,54.38
2016-05-16T08:11:13.561Z,54.67
2016-05-16T08:12:13.531Z,54.77
2016-05-16T08:13:13.503Z,54.96
2016-05-16T08:14:13.458Z,54.38
2016-05-16T08:15:13.431Z,54.74
2016-05-16T08:16:13.403Z,55.02
2016-05-16T08:17:13.374Z,54.74
2016-05-16T08:18:13.345Z,54.83
2016-05-16T08:19:13.300Z,54.83
2016-05-16T08:20:13.272Z,55.02
2016-05-16T08:21:38.027Z,55.31
2016-05-16T08:22:13.199Z,55.21
2016-05-16T08:23:14.061Z,55.41
2016-05-16T08:24:13.143Z,56.17
2016-05-16T08:25:13.114Z,56.07
2016-05-16T08:26:13.069Z,56.46
2016-05-16T08:27:13.041Z,56.07
2016-05-16T08:28:13.012Z,56.07
2016-05-16T08:29:12.968Z,56.17
2016-05-16T08:30:12.954Z,56.17
2016-05-16T08:31:12.926Z,56.65
2016-05-16T08:32:12.868Z,57.03
2016-05-16T08:33:12.838Z,56.93
2016-05-16T08:34:12.810Z,57.22
2016-05-16T08:35:12.797Z,57.98
2016-05-16T08:36:12.753Z,57.7
2016-05-16T08:37:12.709Z,57.98
2016-05-16T08:38:12.680Z,57.43
2016-05-16T08:39:12.651Z,57.06
2016-05-16T08:40:12.607Z,56.29
2016-05-16T08:41:12.578Z,56.2
2016-05-16T08:42:12.550Z,56.13
2016-05-16T08:43:12.506Z,55.94
2016-05-16T08:44:12.477Z,55.08
2016-05-16T08:45:12.450Z,54.7
2016-05-16T08:46:12.419Z,54.13
2016-05-16T08:47:12.391Z,54.7
2016-05-16T08:48:12.348Z,54.5
2016-05-16T08:49:12.319Z,54.79
2016-05-16T08:50:12.291Z,54.5
2016-05-16T08:51:12.355Z,54.13
2016-05-16T08:52:12.233Z,54.99
2016-05-16T08:53:12.189Z,54.89
2016-05-16T08:54:12.160Z,54.89
2016-05-16T08:55:12.132Z,55.36
2016-05-16T08:56:12.104Z,55.08
2016-05-16T08:57:12.060Z,55.34
2016-05-16T08:58:12.030Z,55.15
2016-05-16T08:59:12.002Z,55.24
2016-05-16T09:00:11.973Z,55.43
2016-05-16T09:01:11.945Z,56.01
2016-05-16T09:02:11.900Z,56.01
2016-05-16T09:03:11.872Z,55.91
2016-05-16T09:04:11.860Z,55.98
2016-05-16T09:05:11.799Z,55.69
2016-05-16T09:06:11.771Z,55.79
2016-05-16T09:07:11.742Z,55.5
2016-05-16T09:08:11.698Z,55.69
2016-05-16T09:09:11.670Z,55.21
2016-05-16T09:10:11.641Z,55.12
2016-05-16T09:11:11.597Z,55.69
2016-05-16T09:12:11.568Z,55.88
2016-05-16T09:13:11.571Z,55.6
2016-05-16T09:14:11.527Z,55.79
2016-05-16T09:15:11.467Z,55.98
2016-05-16T09:16:11.438Z,56.14
2016-05-16T09:17:11.410Z,56.43
2016-05-16T09:18:11.380Z,56.52
2016-05-16T09:19:11.336Z,57.09
2016-05-16T09:20:11.309Z,57.28
2016-05-16T09:21:11.296Z,57.48
2016-05-16T09:22:11.439Z,57.19
2016-05-16T09:23:11.207Z,57.86
2016-05-16T09:24:11.179Z,57.95
2016-05-16T09:25:11.135Z,57.38
2016-05-16T09:26:11.106Z,57.48
2016-05-16T09:27:11.077Z,56.62
2016-05-16T09:28:11.033Z,57
2016-05-16T09:29:11.005Z,57.03
2016-05-16T09:30:10.976Z,57.09
2016-05-16T09:31:10.948Z,57.48
2016-05-16T09:32:10.903Z,57.22
2016-05-16T09:33:10.874Z,56.84
2016-05-16T09:34:10.846Z,57.41
2016-05-16T09:35:10.802Z,57.22
2016-05-16T09:36:10.993Z,57.7
2016-05-16T09:37:10.745Z,57.6
2016-05-16T09:38:10.701Z,57.31
2016-05-16T09:39:10.672Z,57.03
2016-05-16T09:40:10.643Z,56.55
2016-05-16T09:41:10.615Z,55.98
2016-05-16T09:42:10.570Z,56.07
2016-05-16T09:43:10.542Z,55.53
2016-05-16T09:44:11.358Z,56.1
2016-05-16T09:45:11.282Z,56.1
2016-05-16T09:46:11.472Z,55.75
2016-05-16T09:47:11.412Z,55.27
2016-05-16T09:48:11.180Z,54.06
2016-05-16T09:49:10.527Z,52.81
2016-05-16T09:50:11.139Z,51.7
2016-05-16T09:51:11.329Z,50
2016-05-16T09:52:11.051Z,48.3
2016-05-16T09:53:11.022Z,46.72
2016-05-16T09:54:10.353Z,45.31
2016-05-16T09:55:10.949Z,44.56
2016-05-16T09:56:10.936Z,44.01
2016-05-16T09:57:10.893Z,43.05
2016-05-16T09:58:10.880Z,42.38
2016-05-16T09:59:25.104Z,41.61
2016-05-16T10:00:11.041Z,41.61
2016-05-16T10:01:10.779Z,41.13
2016-05-16T10:02:10.124Z,40.47
2016-05-16T10:03:10.721Z,40.84
2016-05-16T10:04:10.692Z,39.91
2016-05-16T10:05:10.664Z,39.53
2016-05-16T10:06:10.620Z,38.95
2016-05-16T10:07:10.607Z,38.66
2016-05-16T10:08:10.579Z,38.18
2016-05-16T10:09:10.550Z,38.1
2016-05-16T10:10:10.521Z,37.82
2016-05-16T10:11:10.492Z,36.86
2016-05-16T10:12:09.839Z,36.66
2016-05-16T10:13:10.436Z,36.49
2016-05-16T10:14:10.626Z,36.18
2016-05-16T10:15:10.582Z,36.18
2016-05-16T10:16:10.350Z,35.91
2016-05-16T10:17:10.353Z,35.53
2016-05-16T10:18:22.733Z,35.63
2016-05-16T10:19:10.280Z,35.14
2016-05-16T10:20:10.250Z,35.53
2016-05-16T10:21:10.208Z,35.05
2016-05-16T10:22:10.178Z,34.95
2016-05-16T10:23:09.525Z,35.05
2016-05-16T10:24:10.137Z,35.14
2016-05-16T10:25:10.108Z,34.95
2016-05-16T10:26:10.080Z,35.34
2016-05-16T10:27:10.051Z,35.71
2016-05-16T10:28:10.522Z,35.71
2016-05-16T10:29:10.010Z,36.09
2016-05-16T10:30:09.966Z,36.47
2016-05-16T10:31:09.938Z,36.95
2016-05-16T10:32:09.908Z,37.05
2016-05-16T10:33:09.896Z,36.65
2016-05-16T10:34:24.120Z,36.55
2016-05-16T10:35:09.838Z,36.84
2016-05-16T10:36:09.168Z,36.55
2016-05-16T10:37:09.766Z,36.07
2016-05-16T10:38:09.753Z,36.16
2016-05-16T10:39:09.958Z,35.88
2016-05-16T10:40:09.696Z,35.51
2016-05-16T10:41:09.668Z,35.13
2016-05-16T10:42:09.826Z,34.94
2016-05-16T10:43:09.610Z,35.03
2016-05-16T10:44:09.581Z,34.65
2016-05-16T10:45:09.553Z,34.34
2016-05-16T10:46:09.524Z,34.63
2016-05-16T10:47:09.495Z,34.92
2016-05-16T10:48:09.467Z,35.59
2016-05-16T10:49:09.439Z,35.49
2016-05-16T10:50:09.410Z,35.02
2016-05-16T10:51:09.381Z,34.92
2016-05-16T10:52:08.711Z,34.65
2016-05-16T10:53:08.700Z,34.17
2016-05-16T10:54:09.296Z,35.22
2016-05-16T10:55:09.299Z,34.63
2016-05-16T10:56:09.255Z,35.78
2016-05-16T10:57:09.210Z,36.07
2016-05-16T10:58:08.597Z,36.36
2016-05-16T10:59:09.287Z,36.07
2016-05-16T11:00:09.367Z,35.49
2016-05-16T11:01:09.277Z,35.59
2016-05-16T11:02:09.295Z,36.26
2016-05-16T11:03:09.287Z,36.44
2016-05-16T11:04:09.292Z,36.44
2016-05-16T11:05:09.279Z,36.53
2016-05-16T11:06:09.268Z,36.63
2016-05-16T11:07:09.257Z,36.63
2016-05-16T11:08:10.078Z,36.72
2016-05-16T11:09:09.212Z,37.49
2016-05-16T11:10:09.205Z,37.68
2016-05-16T11:11:09.167Z,38.24
2016-05-16T11:12:09.145Z,38.22
2016-05-16T11:13:09.103Z,39.35
2016-05-16T11:14:08.466Z,40.59
2016-05-16T11:15:08.269Z,41.55
2016-05-16T11:16:08.242Z,41.34
2016-05-16T11:17:08.201Z,41.82
2016-05-16T11:18:08.188Z,42.18
2016-05-16T11:19:08.160Z,42.85
2016-05-16T11:20:08.118Z,43.23
2016-05-16T11:21:08.089Z,43.88
2016-05-16T11:22:08.077Z,43.69
2016-05-16T11:23:08.034Z,44.36
2016-05-16T11:24:08.021Z,44.36
2016-05-16T11:25:07.978Z,44.36
2016-05-16T11:26:07.980Z,44.74
2016-05-16T11:27:07.967Z,44.84
2016-05-16T11:28:08.736Z,45.22
2016-05-16T11:29:08.036Z,44.65
2016-05-16T11:30:08.632Z,44.55
2016-05-16T11:31:08.604Z,44.38
2016-05-16T11:32:08.559Z,43.71
2016-05-16T11:33:08.531Z,43.52
2016-05-16T11:34:08.503Z,43.23
2016-05-16T11:35:08.474Z,42.97
2016-05-16T11:36:08.649Z,42.68
2016-05-16T11:37:08.401Z,42.01
2016-05-16T11:38:08.388Z,41.63
2016-05-16T11:39:08.360Z,41.74
2016-05-16T11:40:22.583Z,41.74
2016-05-16T11:41:08.287Z,41.94
2016-05-16T11:42:08.274Z,42.13
2016-05-16T11:43:07.604Z,42.13
2016-05-16T11:44:08.201Z,42.22
2016-05-16T11:45:08.391Z,42.2
2016-05-16T11:46:08.143Z,42.51
2016-05-16T11:47:08.147Z,42.03
2016-05-16T11:48:08.087Z,41.65
2016-05-16T11:49:08.074Z,41.17
2016-05-16T11:50:08.030Z,41.46
2016-05-16T11:51:08.454Z,41.27
2016-05-16T11:52:07.957Z,41.48
2016-05-16T11:53:07.303Z,40.71
2016-05-16T11:54:07.900Z,40.61
2016-05-16T11:55:07.887Z,41.19
2016-05-16T11:56:07.843Z,39.94
2016-05-16T11:57:07.173Z,40.04
2016-05-16T11:58:07.145Z,40.33
2016-05-16T11:59:07.756Z,40.06
2016-05-16T12:00:07.745Z,40.16
2016-05-16T12:01:07.684Z,39.97
2016-05-16T12:02:07.703Z,40.17
2016-05-16T12:03:07.643Z,40.17
2016-05-16T12:04:07.599Z,39.22
2016-05-16T12:05:07.570Z,38.83
2016-05-16T12:06:06.932Z,38.18
2016-05-16T12:07:07.528Z,37.8
2016-05-16T12:08:07.485Z,37.22
2016-05-16T12:09:07.691Z,37.51
2016-05-16T12:10:07.443Z,37.89
2016-05-16T12:11:06.774Z,37.99
2016-05-16T12:12:07.402Z,37.6
2016-05-16T12:13:07.357Z,37.22
2016-05-16T12:14:07.313Z,37.22
2016-05-16T12:15:07.285Z,37.6
2016-05-16T12:16:07.257Z,37.6
2016-05-16T12:17:06.602Z,37.89
2016-05-16T12:18:07.199Z,37.8
2016-05-16T12:19:07.185Z,38.47
2016-05-16T12:20:07.142Z,38.37
2016-05-16T12:21:06.878Z,38.16
2016-05-16T12:22:07.084Z,38.66
2016-05-16T12:23:07.088Z,38.83
2016-05-16T12:24:07.028Z,39.41
2016-05-16T12:25:06.999Z,39.98
2016-05-16T12:26:06.970Z,39.41
2016-05-16T12:27:06.973Z,39.12
2016-05-16T12:28:06.929Z,38.74
2016-05-16T12:29:06.884Z,38.83
2016-05-16T12:30:06.856Z,39.68
2016-05-16T12:31:06.843Z,38.91
2016-05-16T12:32:06.175Z,38.93
2016-05-16T12:33:06.786Z,38.35
2016-05-16T12:34:06.117Z,38.91
2016-05-16T12:35:06.072Z,39.01
2016-05-16T12:36:06.685Z,39.01
2016-05-16T12:37:06.655Z,39.68
2016-05-16T12:38:06.628Z,39.58
2016-05-16T12:39:06.615Z,39.68
2016-05-16T12:40:20.836Z,40.73
2016-05-16T12:41:06.542Z,40.73
2016-05-16T12:42:06.513Z,40.83
2016-05-16T12:43:06.485Z,40.73
2016-05-16T12:44:06.456Z,40.06
2016-05-16T12:45:05.802Z,41.02
2016-05-16T12:46:05.758Z,40.42
2016-05-16T12:47:05.730Z,40.23
2016-05-16T12:48:06.342Z,41
2016-05-16T12:49:06.532Z,41.28
2016-05-16T12:50:06.301Z,40.98
2016-05-16T12:51:06.459Z,41.55
2016-05-16T12:52:06.244Z,41.17
2016-05-16T12:53:06.198Z,41.74
2016-05-16T12:54:06.374Z,41.94
2016-05-16T12:55:06.330Z,42.11